createdAt,value
2022-09-01T00:00:30.679Z,17.61
2022-09-01T00:03:00.007Z,17.71
2022-09-01T00:05:28.089Z,17.31
2022-09-01T00:07:58.304Z,16.82
2022-09-01T00:10:28.729Z,16.97
2022-09-01T00:12:56.577Z,16.72
2022-09-01T00:15:24.736Z,16.54
2022-09-01T00:17:55.512Z,16.83
2022-09-01T00:20:28.189Z,16.87
2022-09-01T00:22:56.598Z,16.44
2022-09-01T00:25:25.038Z,16.47
2022-09-01T00:27:53.146Z,16.05
2022-09-01T00:30:22.412Z,15.92
2022-09-01T00:32:50.425Z,16.09
2022-09-01T00:35:20.609Z,16.08
2022-09-01T00:37:49.895Z,16.55
2022-09-01T00:40:19.637Z,16.91
2022-09-01T00:42:49.047Z,17.01
2022-09-01T00:45:17.079Z,16.77
2022-09-01T00:47:45.244Z,16.49
2022-09-01T00:50:18.275Z,15.98
2022-09-01T00:52:51.131Z,15.76
2022-09-01T00:55:24.596Z,15.55
2022-09-01T00:57:52.686Z,15.86
2022-09-01T01:00:24.951Z,16.10
2022-09-01T01:02:56.630Z,16.11
2022-09-01T01:05:27.989Z,16.24
2022-09-01T01:07:56.947Z,16.34
2022-09-01T01:10:33.299Z,15.85
2022-09-01T01:13:02.163Z,15.90
2022-09-01T01:15:30.683Z,16.12
2022-09-01T01:17:58.934Z,16.02
2022-09-01T01:20:48.766Z,16.41
2022-09-01T01:23:23.277Z,16.41
2022-09-01T01:25:57.347Z,16.08
2022-09-01T01:28:31.004Z,16.30
2022-09-01T01:31:02.005Z,16.19
2022-09-01T01:33:33.835Z,16.38
2022-09-01T01:36:03.682Z,16.36
2022-09-01T01:38:36.032Z,16.08
2022-09-01T01:41:06.301Z,15.91
2022-09-01T01:43:37.679Z,15.96
2022-09-01T01:46:08.264Z,15.88
2022-09-01T01:48:41.587Z,15.83
2022-09-01T01:51:13.970Z,15.84
2022-09-01T01:53:42.041Z,15.90
2022-09-01T01:56:14.216Z,15.65
2022-09-01T01:58:42.310Z,15.81
2022-09-01T02:01:13.199Z,16.01
2022-09-01T02:03:41.421Z,15.97
2022-09-01T02:06:12.696Z,16.29
2022-09-01T02:08:42.199Z,16.44
2022-09-01T02:11:11.051Z,16.34
2022-09-01T02:13:40.389Z,16.44
2022-09-01T02:16:12.944Z,15.61
2022-09-01T02:18:44.369Z,15.76
2022-09-01T02:21:18.293Z,15.64
2022-09-01T02:23:48.700Z,15.91
2022-09-01T02:26:19.106Z,15.92
2022-09-01T02:28:55.234Z,15.86
2022-09-01T02:31:28.077Z,15.74
2022-09-01T02:33:57.334Z,15.92
2022-09-01T02:36:26.984Z,16.31
2022-09-01T02:38:56.568Z,16.28
2022-09-01T02:41:27.196Z,16.28
2022-09-01T02:43:57.203Z,16.54
2022-09-01T02:46:29.548Z,16.56
2022-09-01T02:48:59.820Z,16.59
2022-09-01T02:51:27.823Z,16.13
2022-09-01T02:53:56.007Z,15.97
2022-09-01T02:56:27.498Z,15.88
2022-09-01T02:58:57.524Z,15.60
2022-09-01T03:01:29.430Z,15.68
2022-09-01T03:04:01.661Z,15.33
2022-09-01T03:06:34.408Z,15.51
2022-09-01T03:09:04.458Z,15.55
2022-09-01T03:11:37.022Z,15.86
2022-09-01T03:14:07.706Z,15.75
2022-09-01T03:16:39.293Z,15.33
2022-09-01T03:19:09.504Z,14.90
2022-09-01T03:21:43.320Z,14.68
2022-09-01T03:24:15.262Z,14.93
2022-09-01T03:26:44.374Z,14.83
2022-09-01T03:29:15.229Z,15.10
2022-09-01T03:31:43.854Z,14.94
2022-09-01T03:34:12.612Z,14.87
2022-09-01T03:36:50.310Z,14.87
2022-09-01T03:39:25.273Z,14.69
2022-09-01T03:41:55.348Z,14.54
2022-09-01T03:44:24.743Z,14.41
2022-09-01T03:46:52.917Z,14.40
2022-09-01T03:49:27.786Z,14.61
2022-09-01T03:51:58.704Z,14.89
2022-09-01T03:54:30.526Z,15.43
2022-09-01T03:57:00.775Z,15.48
2022-09-01T03:59:31.675Z,15.92
2022-09-01T04:02:00.446Z,16.09
2022-09-01T04:04:31.461Z,16.09
2022-09-01T04:07:02.467Z,16.11
2022-09-01T04:09:33.744Z,16.30
2022-09-01T04:12:01.748Z,16.23
2022-09-01T04:14:32.584Z,15.74
2022-09-01T04:17:30.376Z,16.12
2022-09-01T04:19:58.926Z,15.80
2022-09-01T04:22:32.030Z,15.57
2022-09-01T04:25:00.476Z,15.46
2022-09-01T04:27:29.015Z,14.77
2022-09-01T04:29:58.760Z,14.71
2022-09-01T04:32:30.793Z,14.47
2022-09-01T04:35:02.320Z,14.20
2022-09-01T04:37:31.016Z,14.20
2022-09-01T04:40:01.997Z,14.63
2022-09-01T04:42:32.874Z,14.44
2022-09-01T04:45:10.344Z,15.02
2022-09-01T04:47:42.193Z,14.75
2022-09-01T04:50:17.134Z,14.87
2022-09-01T04:53:00.238Z,14.63
2022-09-01T04:55:32.051Z,14.46
2022-09-01T04:58:08.369Z,14.74
2022-09-01T05:00:40.517Z,14.86
2022-09-01T05:03:10.338Z,15.00
2022-09-01T05:06:15.114Z,15.10
2022-09-01T05:08:48.589Z,14.93
2022-09-01T05:11:29.053Z,14.86
2022-09-01T05:14:05.276Z,15.05
2022-09-01T05:16:36.284Z,14.89
2022-09-01T05:19:05.588Z,15.06
2022-09-01T05:21:40.248Z,15.20
2022-09-01T05:24:09.059Z,15.23
2022-09-01T05:26:38.534Z,15.06
2022-09-01T05:29:10.615Z,14.85
2022-09-01T05:31:44.985Z,15.06
2022-09-01T05:34:15.287Z,15.77
2022-09-01T05:36:46.152Z,15.58
2022-09-01T05:39:14.879Z,15.81
2022-09-01T05:41:43.677Z,15.66
2022-09-01T05:44:14.274Z,15.28
2022-09-01T05:46:45.056Z,15.48
2022-09-01T05:49:16.921Z,15.48
2022-09-01T05:51:51.617Z,15.58
2022-09-01T05:54:27.360Z,15.85
2022-09-01T05:57:12.668Z,16.12
2022-09-01T05:59:53.864Z,16.25
2022-09-01T06:02:26.325Z,15.72
2022-09-01T06:04:57.421Z,15.79
2022-09-01T06:07:30.667Z,16.19
2022-09-01T06:10:02.071Z,16.55
2022-09-01T06:12:30.284Z,16.95
2022-09-01T06:14:59.046Z,16.47
2022-09-01T06:17:30.758Z,16.54
2022-09-01T06:20:10.726Z,17.19
2022-09-01T06:22:42.930Z,17.58
2022-09-01T06:25:11.765Z,17.90
2022-09-01T06:27:44.832Z,17.99
2022-09-01T06:30:20.175Z,17.78
2022-09-01T06:32:57.570Z,17.84
2022-09-01T06:35:29.578Z,16.90
2022-09-01T06:38:00.000Z,17.20
2022-09-01T06:41:01.548Z,18.04
2022-09-01T06:43:30.869Z,18.26
2022-09-01T06:46:02.780Z,17.41
2022-09-01T06:48:32.538Z,18.14
2022-09-01T06:51:18.417Z,18.25
2022-09-01T06:53:56.525Z,18.53
2022-09-01T06:56:32.302Z,18.56
2022-09-01T06:59:04.168Z,18.98
2022-09-01T07:01:32.835Z,18.91
2022-09-01T07:04:03.055Z,19.15
2022-09-01T07:06:59.700Z,19.63
2022-09-01T07:09:46.969Z,19.66
2022-09-01T07:12:25.906Z,18.60
2022-09-01T07:17:43.621Z,19.19
2022-09-01T07:20:30.678Z,18.57
2022-09-01T07:23:04.706Z,19.36
2022-09-01T07:28:41.935Z,19.09
2022-09-01T07:43:08.415Z,21.33
2022-09-01T07:49:29.470Z,22.16
2022-09-01T07:51:55.333Z,22.61
2022-09-01T07:54:25.310Z,21.84
2022-09-01T07:56:55.609Z,20.74
2022-09-01T07:59:26.707Z,21.06
2022-09-01T08:02:05.633Z,21.29
2022-09-01T08:04:34.092Z,22.01
2022-09-01T08:07:03.090Z,22.39
2022-09-01T08:09:37.463Z,20.75
2022-09-01T08:12:09.370Z,20.14
2022-09-01T08:17:53.740Z,21.30
2022-09-01T08:20:24.923Z,21.13
2022-09-01T08:22:56.500Z,20.66
2022-09-01T08:25:34.410Z,20.97
2022-09-01T08:28:03.355Z,20.91
2022-09-01T08:30:32.618Z,20.40
2022-09-01T08:33:17.789Z,21.68
2022-09-01T08:35:50.077Z,22.42
2022-09-01T08:38:19.956Z,20.86
2022-09-01T08:40:56.846Z,21.89
2022-09-01T08:43:46.545Z,22.40
2022-09-01T08:46:20.684Z,22.24
2022-09-01T08:52:25.545Z,21.03
2022-09-01T08:54:59.777Z,22.25
2022-09-01T08:57:34.587Z,22.77
2022-09-01T09:00:24.361Z,21.93
2022-09-01T09:03:07.418Z,22.25
2022-09-01T09:05:50.871Z,22.65
2022-09-01T09:08:45.932Z,22.83
2022-09-01T09:11:28.022Z,22.39
2022-09-01T09:14:07.511Z,22.77
2022-09-01T09:16:40.834Z,23.26
2022-09-01T09:19:12.424Z,23.54
2022-09-01T09:21:42.397Z,22.52
2022-09-01T09:24:19.324Z,22.01
2022-09-01T09:26:50.923Z,21.95
2022-09-01T09:29:22.031Z,22.36
2022-09-01T09:32:44.215Z,22.92
2022-09-01T09:35:20.195Z,22.94
2022-09-01T09:37:48.475Z,23.11
2022-09-01T09:40:22.451Z,23.16
2022-09-01T09:43:06.791Z,22.87
2022-09-01T09:45:41.652Z,22.82
2022-09-01T09:48:27.165Z,23.02
2022-09-01T09:50:55.138Z,23.13
2022-09-01T09:53:29.591Z,23.36
2022-09-01T09:56:05.556Z,22.83
2022-09-01T09:58:38.335Z,23.49
2022-09-01T10:01:17.497Z,22.43
2022-09-01T10:03:50.505Z,22.90
2022-09-01T10:06:33.092Z,22.98
2022-09-01T10:09:01.849Z,23.80
2022-09-01T10:11:35.646Z,24.04
2022-09-01T10:14:08.014Z,23.59
2022-09-01T10:16:42.549Z,23.77
2022-09-01T10:19:16.348Z,24.17
2022-09-01T10:21:46.384Z,23.83
2022-09-01T10:24:22.347Z,23.80
2022-09-01T10:26:58.398Z,23.76
2022-09-01T10:29:34.867Z,24.10
2022-09-01T10:32:31.452Z,24.38
2022-09-01T10:34:59.754Z,24.46
2022-09-01T10:37:28.654Z,24.48
2022-09-01T10:40:20.583Z,24.96
2022-09-01T10:42:53.946Z,25.24
2022-09-01T10:45:33.766Z,24.49
2022-09-01T10:48:32.507Z,24.67
2022-09-01T10:51:51.565Z,24.84
2022-09-01T10:54:57.983Z,24.92
2022-09-01T10:57:42.267Z,25.40
2022-09-01T11:01:40.298Z,25.11
2022-09-01T11:03:54.374Z,25.55
2022-09-01T11:07:12.327Z,25.97
2022-09-01T11:09:42.892Z,26.30
2022-09-01T11:12:48.961Z,26.84
2022-09-01T11:15:38.993Z,26.38
2022-09-01T11:18:14.559Z,26.66
2022-09-01T11:20:50.954Z,26.56
2022-09-01T11:23:27.719Z,26.65
2022-09-01T11:28:45.649Z,26.39
2022-09-01T11:31:27.943Z,26.55
2022-09-01T11:34:19.139Z,27.76
2022-09-01T11:36:54.052Z,27.38
2022-09-01T11:39:42.258Z,27.04
2022-09-01T11:42:20.080Z,26.93
2022-09-01T11:44:52.925Z,26.54
2022-09-01T11:47:26.595Z,27.47
2022-09-01T11:49:58.211Z,27.69
2022-09-01T11:52:32.362Z,27.23
2022-09-01T11:55:03.559Z,27.31
2022-09-01T11:57:34.586Z,27.47
2022-09-01T12:00:06.396Z,27.93
2022-09-01T12:02:45.983Z,27.58
2022-09-01T12:05:28.567Z,27.19
2022-09-01T12:07:59.248Z,27.13
2022-09-01T12:10:33.763Z,27.25
2022-09-01T12:13:04.982Z,27.50
2022-09-01T12:15:35.139Z,28.25
2022-09-01T12:18:21.108Z,27.88
2022-09-01T12:20:51.696Z,28.33
2022-09-01T12:23:27.415Z,28.39
2022-09-01T12:25:57.367Z,28.39
2022-09-01T12:28:30.459Z,28.91
2022-09-01T12:31:00.518Z,28.94
2022-09-01T12:33:31.737Z,27.78
2022-09-01T12:36:26.293Z,26.89
2022-09-01T12:38:57.928Z,27.94
2022-09-01T12:41:37.688Z,28.38
2022-09-01T12:44:30.720Z,28.91
2022-09-01T12:47:00.706Z,28.18
2022-09-01T12:49:45.367Z,28.79
2022-09-01T12:52:26.115Z,28.19
2022-09-01T12:55:47.406Z,28.73
2022-09-01T12:58:04.929Z,27.23
2022-09-01T13:00:39.716Z,28.06
2022-09-01T13:03:14.147Z,28.13
2022-09-01T13:05:44.114Z,27.33
2022-09-01T13:08:14.859Z,27.29
2022-09-01T13:10:46.464Z,27.62
2022-09-01T13:13:16.054Z,27.80
2022-09-01T13:15:48.133Z,28.06
2022-09-01T13:18:16.669Z,27.50
2022-09-01T13:20:44.934Z,28.08
2022-09-01T13:23:13.137Z,28.78
2022-09-01T13:25:44.312Z,27.66
2022-09-01T13:28:14.331Z,27.90
2022-09-01T13:30:43.491Z,27.34
2022-09-01T13:33:20.626Z,27.22
2022-09-01T13:35:51.123Z,27.00
2022-09-01T13:38:20.533Z,27.46
2022-09-01T13:40:50.105Z,27.31
2022-09-01T13:43:22.733Z,26.78
2022-09-01T13:45:54.439Z,27.12
2022-09-01T13:49:02.355Z,26.79
2022-09-01T13:51:15.437Z,25.78
2022-09-01T13:53:45.405Z,26.20
2022-09-01T13:56:15.753Z,26.58
2022-09-01T13:58:45.136Z,26.50
2022-09-01T14:01:16.868Z,25.70
2022-09-01T14:03:47.827Z,25.49
2022-09-01T14:06:18.090Z,25.48
2022-09-01T14:08:46.237Z,26.48
2022-09-01T14:11:17.952Z,26.38
2022-09-01T14:13:47.878Z,26.86
2022-09-01T14:16:16.336Z,26.85
2022-09-01T14:18:44.318Z,26.58
2022-09-01T14:21:14.728Z,27.31
2022-09-01T14:23:46.175Z,26.46
2022-09-01T14:26:16.647Z,26.55
2022-09-01T14:28:47.585Z,26.27
2022-09-01T14:31:18.766Z,26.41
2022-09-01T14:33:47.050Z,26.25
2022-09-01T14:36:20.323Z,26.79
2022-09-01T14:38:49.146Z,26.48
2022-09-01T14:41:21.917Z,26.38
2022-09-01T14:43:50.017Z,26.41
2022-09-01T14:46:20.272Z,26.37
2022-09-01T14:48:48.927Z,26.52
2022-09-01T14:51:23.681Z,25.70
2022-09-01T14:53:52.620Z,25.38
2022-09-01T14:56:28.012Z,25.76
2022-09-01T14:59:00.684Z,25.95
2022-09-01T15:01:35.135Z,25.89
2022-09-01T15:04:03.994Z,25.99
2022-09-01T15:06:32.225Z,25.87
2022-09-01T15:09:02.239Z,25.94
2022-09-01T15:11:30.359Z,25.69
2022-09-01T15:14:02.167Z,26.10
2022-09-01T15:16:30.350Z,26.55
2022-09-01T15:18:59.655Z,26.46
2022-09-01T15:21:33.778Z,25.68
2022-09-01T15:24:02.685Z,25.78
2022-09-01T15:26:31.799Z,26.24
2022-09-01T15:28:59.796Z,26.07
2022-09-01T15:31:32.829Z,25.78
2022-09-01T15:34:04.979Z,25.52
2022-09-01T15:36:36.589Z,25.77
2022-09-01T15:39:04.692Z,25.94
2022-09-01T15:41:34.610Z,25.48
2022-09-01T15:44:07.236Z,25.56
2022-09-01T15:46:35.588Z,25.11
2022-09-01T15:49:07.570Z,25.34
2022-09-01T15:51:37.914Z,25.41
2022-09-01T15:54:08.952Z,25.21
2022-09-01T15:56:37.684Z,25.24
2022-09-01T15:59:07.404Z,24.96
2022-09-01T16:01:41.826Z,24.85
2022-09-01T16:04:19.052Z,25.22
2022-09-01T16:06:49.478Z,25.45
2022-09-01T16:09:20.888Z,25.11
2022-09-01T16:11:48.977Z,25.44
2022-09-01T16:14:17.114Z,25.35
2022-09-01T16:16:54.565Z,25.23
2022-09-01T16:19:33.322Z,25.21
2022-09-01T16:22:12.037Z,25.18
2022-09-01T16:24:46.250Z,25.70
2022-09-01T16:27:17.950Z,25.17
2022-09-01T16:29:49.808Z,25.38
2022-09-01T16:32:21.347Z,25.20
2022-09-01T16:34:52.355Z,25.38
2022-09-01T16:37:37.077Z,25.36
2022-09-01T16:40:14.028Z,24.72
2022-09-01T16:42:50.430Z,24.77
2022-09-01T16:45:42.741Z,24.91
2022-09-01T16:48:19.631Z,24.74
2022-09-01T16:50:58.465Z,25.07
2022-09-01T16:53:40.821Z,25.06
2022-09-01T16:56:15.220Z,24.69
2022-09-01T16:58:51.155Z,24.20
2022-09-01T17:01:31.085Z,24.31
2022-09-01T17:04:12.015Z,24.60
2022-09-01T17:06:52.247Z,24.47
2022-09-01T17:09:24.983Z,24.12
2022-09-01T17:11:55.296Z,23.47
2022-09-01T17:14:31.981Z,23.90
2022-09-01T17:17:06.668Z,23.96
2022-09-01T17:19:35.373Z,23.75
2022-09-01T17:22:07.581Z,23.58
2022-09-01T17:24:40.147Z,23.43
2022-09-01T17:27:14.999Z,23.72
2022-09-01T17:29:45.928Z,23.69
2022-09-01T17:32:30.928Z,23.47
2022-09-01T17:35:16.021Z,23.49
2022-09-01T17:38:00.804Z,23.26
2022-09-01T17:40:44.878Z,23.29
2022-09-01T17:43:26.301Z,22.85
2022-09-01T17:46:04.451Z,23.23
2022-09-01T17:48:44.508Z,23.43
2022-09-01T17:51:20.543Z,23.53
2022-09-01T17:53:59.352Z,23.32
2022-09-01T17:56:43.011Z,23.48
2022-09-01T17:59:18.624Z,23.58
2022-09-01T18:02:02.853Z,23.38
2022-09-01T18:04:52.275Z,23.43
2022-09-01T18:07:41.220Z,23.22
2022-09-01T18:10:15.443Z,23.35
2022-09-01T18:12:57.170Z,23.43
2022-09-01T18:15:25.452Z,23.52
2022-09-01T18:18:01.277Z,23.29
2022-09-01T18:20:33.838Z,23.24
2022-09-01T18:23:05.651Z,22.80
2022-09-01T18:25:39.317Z,23.11
2022-09-01T18:28:08.323Z,23.19
2022-09-01T18:30:53.248Z,22.93
2022-09-01T18:33:28.480Z,22.36
2022-09-01T18:36:08.145Z,22.10
2022-09-01T18:38:44.112Z,22.49
2022-09-01T18:41:40.456Z,21.96
2022-09-01T18:44:27.704Z,21.64
2022-09-01T18:47:00.871Z,21.69
2022-09-01T18:49:40.587Z,21.83
2022-09-01T18:52:22.034Z,21.57
2022-09-01T18:55:01.772Z,21.29
2022-09-01T18:57:37.156Z,21.54
2022-09-01T19:00:17.841Z,21.49
2022-09-01T19:03:02.797Z,20.95
2022-09-01T19:05:41.890Z,20.61
2022-09-01T19:08:23.945Z,20.41
2022-09-01T19:10:57.961Z,19.98
2022-09-01T19:13:47.309Z,19.73
2022-09-01T19:16:29.573Z,19.94
2022-09-01T19:19:10.324Z,19.84
2022-09-01T19:21:39.307Z,19.83
2022-09-01T19:24:11.586Z,19.55
2022-09-01T19:26:42.071Z,19.71
2022-09-01T19:29:17.505Z,19.91
2022-09-01T19:31:48.302Z,19.83
2022-09-01T19:34:19.226Z,19.59
2022-09-01T19:36:49.841Z,19.41
2022-09-01T19:39:20.524Z,19.45
2022-09-01T19:41:52.301Z,19.52
2022-09-01T19:44:35.284Z,19.19
2022-09-01T19:47:11.767Z,19.16
2022-09-01T19:49:47.545Z,19.26
2022-09-01T19:52:32.370Z,19.40
2022-09-01T19:55:04.670Z,19.11
2022-09-01T19:57:39.819Z,19.31
2022-09-01T20:00:13.717Z,19.31
2022-09-01T20:02:47.978Z,19.00
2022-09-01T20:05:27.229Z,18.99
2022-09-01T20:07:59.518Z,18.97
2022-09-01T20:10:56.264Z,18.85
2022-09-01T20:13:46.331Z,19.06
2022-09-01T20:16:25.410Z,19.23
2022-09-01T20:18:59.361Z,19.07
2022-09-01T20:21:27.569Z,18.90
2022-09-01T20:23:59.056Z,18.76
2022-09-01T20:26:32.816Z,18.49
2022-09-01T20:29:06.862Z,18.71
2022-09-01T20:31:45.386Z,18.69
2022-09-01T20:34:20.236Z,18.68
2022-09-01T20:36:52.189Z,18.65
2022-09-01T20:39:48.689Z,18.89
2022-09-01T20:42:22.134Z,19.05
2022-09-01T20:44:55.887Z,19.20
2022-09-01T20:47:28.525Z,19.65
2022-09-01T20:49:58.733Z,19.81
2022-09-01T20:52:33.548Z,19.76
2022-09-01T20:55:11.576Z,19.92
2022-09-01T20:57:45.662Z,19.97
2022-09-01T21:00:19.616Z,19.99
2022-09-01T21:02:54.957Z,19.87
2022-09-01T21:05:34.018Z,19.90
2022-09-01T21:08:20.283Z,19.77
2022-09-01T21:10:56.545Z,19.45
2022-09-01T21:13:41.702Z,19.01
2022-09-01T21:16:16.355Z,18.63
2022-09-01T21:18:56.823Z,18.90
2022-09-01T21:21:35.063Z,18.13
2022-09-01T21:24:05.878Z,17.53
2022-09-01T21:26:37.704Z,17.73
2022-09-01T21:29:26.539Z,17.57
2022-09-01T21:31:57.304Z,17.25
2022-09-01T21:34:27.085Z,17.03
2022-09-01T21:36:57.241Z,17.16
2022-09-01T21:39:25.097Z,17.05
2022-09-01T21:41:53.051Z,17.67
2022-09-01T21:44:22.285Z,18.05
2022-09-01T21:46:50.468Z,18.62
2022-09-01T21:49:18.427Z,18.81
2022-09-01T21:51:47.714Z,18.93
2022-09-01T21:54:18.116Z,18.82
2022-09-01T21:56:46.103Z,18.01
2022-09-01T21:59:17.079Z,18.18
2022-09-01T22:01:47.648Z,17.47
2022-09-01T22:04:17.272Z,17.61
2022-09-01T22:06:47.619Z,17.72
2022-09-01T22:09:20.665Z,18.11
2022-09-01T22:11:50.126Z,17.48
2022-09-01T22:14:21.637Z,17.40
2022-09-01T22:16:50.349Z,17.50
2022-09-01T22:19:20.219Z,16.96
2022-09-01T22:21:49.880Z,17.66
2022-09-01T22:24:21.131Z,18.02
2022-09-01T22:26:49.523Z,18.29
2022-09-01T22:29:18.552Z,18.42
2022-09-01T22:31:46.531Z,18.04
2022-09-01T22:34:14.436Z,18.19
2022-09-01T22:36:45.396Z,17.22
2022-09-01T22:39:16.664Z,16.70
2022-09-01T22:41:44.654Z,17.25
2022-09-01T22:44:12.912Z,17.05
2022-09-01T22:46:41.220Z,17.10
2022-09-01T22:49:10.533Z,17.06
2022-09-01T22:51:39.642Z,17.17
2022-09-01T22:54:10.700Z,17.30
2022-09-01T22:56:43.531Z,17.80
2022-09-01T22:59:15.089Z,17.64
2022-09-01T23:01:45.817Z,18.02
2022-09-01T23:04:15.289Z,17.84
2022-09-01T23:06:44.896Z,18.27
2022-09-01T23:09:15.750Z,18.43
2022-09-01T23:11:45.916Z,18.46
2022-09-01T23:14:14.042Z,18.47
2022-09-01T23:16:42.030Z,18.27
2022-09-01T23:19:10.113Z,18.02
2022-09-01T23:21:39.307Z,18.07
2022-09-01T23:24:08.249Z,18.18
2022-09-01T23:26:36.795Z,17.54
2022-09-01T23:29:06.890Z,17.82
2022-09-01T23:31:38.995Z,17.76
2022-09-01T23:34:08.982Z,17.61
2022-09-01T23:36:38.088Z,17.54
2022-09-01T23:39:09.363Z,17.12
2022-09-01T23:41:38.381Z,16.95
2022-09-01T23:44:10.520Z,17.10
2022-09-01T23:46:44.316Z,17.18
2022-09-01T23:49:13.708Z,17.00
2022-09-01T23:51:42.177Z,16.60
2022-09-01T23:54:10.926Z,16.51
2022-09-01T23:56:39.721Z,16.55
2022-09-01T23:59:09.730Z,16.55
